createdAt,value
2019-03-17T00:00:41.829Z,99.90
2019-03-17T00:03:08.767Z,99.90
2019-03-17T00:05:35.477Z,99.90
2019-03-17T00:08:02.130Z,99.90
2019-03-17T00:10:28.787Z,99.90
2019-03-17T00:12:56.516Z,99.90
2019-03-17T00:15:23.670Z,99.90
2019-03-17T00:17:50.354Z,99.90
2019-03-17T00:20:17.236Z,99.90
2019-03-17T00:22:44.048Z,99.90
2019-03-17T00:25:10.773Z,99.90
2019-03-17T00:27:37.497Z,99.90
2019-03-17T00:30:06.158Z,99.90
2019-03-17T00:32:32.868Z,99.90
2019-03-17T00:34:59.491Z,99.90
2019-03-17T00:37:26.218Z,99.90
2019-03-17T00:39:53.067Z,99.90
2019-03-17T00:42:20.062Z,99.90
2019-03-17T00:44:47.099Z,99.90
2019-03-17T00:47:13.771Z,99.90
2019-03-17T00:49:40.448Z,99.90
2019-03-17T00:52:07.172Z,99.90
2019-03-17T00:54:33.999Z,99.90
2019-03-17T00:57:01.118Z,99.90
2019-03-17T00:59:27.761Z,99.90
2019-03-17T01:01:56.048Z,99.90
2019-03-17T01:04:23.008Z,99.90
2019-03-17T01:06:50.121Z,99.90
2019-03-17T01:09:17.099Z,99.90
2019-03-17T01:11:43.836Z,99.90
2019-03-17T01:14:16.355Z,99.90
2019-03-17T01:16:42.964Z,99.90
2019-03-17T01:19:09.632Z,99.90
2019-03-17T01:21:36.491Z,99.90
2019-03-17T01:24:03.171Z,99.90
2019-03-17T01:26:29.766Z,99.90
2019-03-17T01:28:56.413Z,99.30
2019-03-17T01:31:23.137Z,99.80
2019-03-17T01:33:50.027Z,99.30
2019-03-17T01:36:16.687Z,98.40
2019-03-17T01:38:43.306Z,98.30
2019-03-17T01:41:09.953Z,99.30
2019-03-17T01:43:36.608Z,97.70
2019-03-17T01:46:03.229Z,98.20
2019-03-17T01:48:30.487Z,98.10
2019-03-17T01:50:57.225Z,98.00
2019-03-17T01:53:24.080Z,97.80
2019-03-17T01:55:50.812Z,98.20
2019-03-17T01:58:17.485Z,98.00
2019-03-17T02:00:44.188Z,97.60
2019-03-17T02:03:11.025Z,96.80
2019-03-17T02:05:37.776Z,96.10
2019-03-17T02:08:04.399Z,95.90
2019-03-17T02:10:30.996Z,95.20
2019-03-17T02:12:57.629Z,94.80
2019-03-17T02:15:24.586Z,93.50
2019-03-17T02:17:51.443Z,93.90
2019-03-17T02:20:18.444Z,94.00
2019-03-17T02:22:45.237Z,93.40
2019-03-17T02:25:11.824Z,93.00
2019-03-17T02:27:38.452Z,92.70
2019-03-17T02:30:06.260Z,92.50
2019-03-17T02:32:33.047Z,92.60
2019-03-17T02:34:59.703Z,91.60
2019-03-17T02:37:26.374Z,91.80
2019-03-17T02:39:53.620Z,91.00
2019-03-17T02:42:20.246Z,91.50
2019-03-17T02:44:47.009Z,90.80
2019-03-17T02:47:13.592Z,90.50
2019-03-17T02:49:40.245Z,89.60
2019-03-17T02:52:06.880Z,90.60
2019-03-17T02:54:33.496Z,89.20
2019-03-17T02:57:00.335Z,89.90
2019-03-17T02:59:26.962Z,87.30
2019-03-17T03:01:53.616Z,87.80
2019-03-17T03:04:20.285Z,87.90
2019-03-17T03:06:47.034Z,87.50
2019-03-17T03:09:13.753Z,87.70
2019-03-17T03:11:40.344Z,87.00
2019-03-17T03:14:07.042Z,87.00
2019-03-17T03:16:34.012Z,88.20
2019-03-17T03:19:00.621Z,86.80
2019-03-17T03:21:27.269Z,86.50
2019-03-17T03:23:54.539Z,86.70
2019-03-17T03:26:21.161Z,86.90
2019-03-17T03:28:47.787Z,88.80
2019-03-17T03:31:15.130Z,87.40
2019-03-17T03:33:42.078Z,87.10
2019-03-17T03:36:11.562Z,87.70
2019-03-17T03:38:37.191Z,87.70
2019-03-17T03:41:04.646Z,88.30
2019-03-17T03:43:32.513Z,87.50
2019-03-17T03:45:59.150Z,87.00
2019-03-17T03:48:28.107Z,87.10
2019-03-17T03:50:55.512Z,87.40
2019-03-17T03:53:22.260Z,88.10
2019-03-17T03:55:49.049Z,87.40
2019-03-17T03:58:15.668Z,88.20
2019-03-17T04:00:42.299Z,89.70
2019-03-17T04:03:09.042Z,89.40
2019-03-17T04:05:36.039Z,90.00
2019-03-17T04:08:02.943Z,91.70
2019-03-17T04:10:29.802Z,90.90
2019-03-17T04:12:56.500Z,90.80
2019-03-17T04:15:23.214Z,91.20
2019-03-17T04:17:50.054Z,91.10
2019-03-17T04:20:16.767Z,91.00
2019-03-17T04:22:43.470Z,91.10
2019-03-17T04:25:13.955Z,91.10
2019-03-17T04:27:40.540Z,91.00
2019-03-17T04:30:07.254Z,91.20
2019-03-17T04:32:33.901Z,91.20
2019-03-17T04:35:00.535Z,91.20
2019-03-17T04:37:27.177Z,91.00
2019-03-17T04:39:53.797Z,91.20
2019-03-17T04:42:20.403Z,91.50
2019-03-17T04:45:06.887Z,91.80
2019-03-17T04:47:33.584Z,90.20
2019-03-17T04:50:00.351Z,90.50
2019-03-17T04:52:27.005Z,90.40
2019-03-17T04:54:53.599Z,90.40
2019-03-17T04:57:20.177Z,90.40
2019-03-17T04:59:46.785Z,90.60
2019-03-17T05:02:13.738Z,90.30
2019-03-17T05:04:40.522Z,90.20
2019-03-17T05:07:07.161Z,90.00
2019-03-17T05:09:33.788Z,89.60
2019-03-17T05:12:00.379Z,89.30
2019-03-17T05:14:27.045Z,89.10
2019-03-17T05:16:53.666Z,89.20
2019-03-17T05:19:20.272Z,88.40
2019-03-17T05:21:47.166Z,88.50
2019-03-17T05:24:13.776Z,87.90
2019-03-17T05:26:40.371Z,88.50
2019-03-17T05:29:07.036Z,88.10
2019-03-17T05:31:33.727Z,88.20
2019-03-17T05:34:00.337Z,88.30
2019-03-17T05:36:27.506Z,87.50
2019-03-17T05:38:54.213Z,87.90
2019-03-17T05:41:20.799Z,87.50
2019-03-17T05:43:47.424Z,87.40
2019-03-17T05:46:14.015Z,86.90
2019-03-17T05:48:40.652Z,87.30
2019-03-17T05:51:07.363Z,86.80
2019-03-17T05:53:33.943Z,86.50
2019-03-17T05:56:00.574Z,86.10
2019-03-17T05:58:27.295Z,86.30
2019-03-17T06:00:54.037Z,86.70
2019-03-17T06:03:20.900Z,85.90
2019-03-17T06:05:47.641Z,86.30
2019-03-17T06:08:14.352Z,86.00
2019-03-17T06:10:41.051Z,86.60
2019-03-17T06:13:08.385Z,87.10
2019-03-17T06:15:35.011Z,86.60
2019-03-17T06:18:01.728Z,86.90
2019-03-17T06:20:28.351Z,87.20
2019-03-17T06:22:54.951Z,87.00
2019-03-17T06:25:21.696Z,87.20
2019-03-17T06:27:48.438Z,87.70
2019-03-17T06:30:15.029Z,87.90
2019-03-17T06:32:41.614Z,88.00
2019-03-17T06:35:08.360Z,88.10
2019-03-17T06:37:34.984Z,87.80
2019-03-17T06:40:01.664Z,87.40
2019-03-17T06:42:28.566Z,86.50
2019-03-17T06:44:55.488Z,86.10
2019-03-17T06:47:22.078Z,85.80
2019-03-17T06:49:48.693Z,85.60
2019-03-17T06:52:15.280Z,85.80
2019-03-17T06:54:41.867Z,85.50
2019-03-17T06:57:08.553Z,85.80
2019-03-17T06:59:35.164Z,85.70
2019-03-17T07:02:01.865Z,85.40
2019-03-17T07:04:28.476Z,84.70
2019-03-17T07:06:55.219Z,84.30
2019-03-17T07:09:21.806Z,84.20
2019-03-17T07:11:48.459Z,83.90
2019-03-17T07:14:15.171Z,83.60
2019-03-17T07:16:41.756Z,83.30
2019-03-17T07:19:08.376Z,82.70
2019-03-17T07:21:34.964Z,82.80
2019-03-17T07:24:01.768Z,82.10
2019-03-17T07:26:28.780Z,83.20
2019-03-17T07:28:55.396Z,84.80
2019-03-17T07:31:21.973Z,84.40
2019-03-17T07:33:48.591Z,84.80
2019-03-17T07:36:15.212Z,84.00
2019-03-17T07:38:41.795Z,82.60
2019-03-17T07:41:08.825Z,81.00
2019-03-17T07:43:35.407Z,77.00
2019-03-17T07:46:02.180Z,73.40
2019-03-17T07:48:28.817Z,68.10
2019-03-17T07:50:55.465Z,67.10
2019-03-17T07:53:22.207Z,69.30
2019-03-17T07:55:48.791Z,69.00
2019-03-17T07:58:15.487Z,64.30
2019-03-17T08:00:42.138Z,60.60
2019-03-17T08:03:09.056Z,59.00
2019-03-17T08:05:35.745Z,56.60
2019-03-17T08:08:09.413Z,56.40
2019-03-17T08:10:30.992Z,56.70
2019-03-17T08:12:57.620Z,56.60
2019-03-17T08:15:24.264Z,55.30
2019-03-17T08:17:51.080Z,55.20
2019-03-17T08:20:17.703Z,55.80
2019-03-17T08:22:44.354Z,56.80
2019-03-17T08:25:11.078Z,54.90
2019-03-17T08:27:37.757Z,53.20
2019-03-17T08:30:05.228Z,53.90
2019-03-17T08:32:31.952Z,53.00
2019-03-17T08:34:58.673Z,52.00
2019-03-17T08:37:25.340Z,52.00
2019-03-17T08:39:51.963Z,52.10
2019-03-17T08:42:18.632Z,52.40
2019-03-17T08:44:45.218Z,52.40
2019-03-17T08:47:11.943Z,51.70
2019-03-17T08:49:38.601Z,49.60
2019-03-17T08:52:05.397Z,50.30
2019-03-17T08:54:32.043Z,52.30
2019-03-17T08:56:58.780Z,52.90
2019-03-17T08:59:26.843Z,54.00
2019-03-17T09:01:53.488Z,54.30
2019-03-17T09:04:20.075Z,53.20
2019-03-17T09:06:46.707Z,53.90
2019-03-17T09:09:13.360Z,52.60
2019-03-17T09:11:40.240Z,53.00
2019-03-17T09:14:06.954Z,48.70
2019-03-17T09:16:33.673Z,48.70
2019-03-17T09:19:00.261Z,48.40
2019-03-17T09:21:26.994Z,47.70
2019-03-17T09:23:53.756Z,48.00
2019-03-17T09:26:20.722Z,47.70
2019-03-17T09:28:47.396Z,46.10
2019-03-17T09:31:14.128Z,45.40
2019-03-17T09:33:40.740Z,45.20
2019-03-17T09:36:07.378Z,44.80
2019-03-17T09:38:46.406Z,44.50
2019-03-17T09:41:02.749Z,46.40
2019-03-17T09:43:29.639Z,46.60
2019-03-17T09:45:56.283Z,45.90
2019-03-17T09:48:22.972Z,46.00
2019-03-17T09:50:49.774Z,46.80
2019-03-17T09:53:16.451Z,48.40
2019-03-17T09:55:43.402Z,49.20
2019-03-17T09:58:10.100Z,50.60
2019-03-17T10:00:36.753Z,49.10
2019-03-17T10:03:03.487Z,49.00
2019-03-17T10:05:30.091Z,49.40
2019-03-17T10:07:56.817Z,50.60
2019-03-17T10:10:23.685Z,51.90
2019-03-17T10:12:50.375Z,52.60
2019-03-17T10:15:17.267Z,52.90
2019-03-17T10:17:43.932Z,53.40
2019-03-17T10:20:12.485Z,52.90
2019-03-17T10:22:39.880Z,52.80
2019-03-17T10:25:07.777Z,52.80
2019-03-17T10:27:34.444Z,53.80
2019-03-17T10:30:01.040Z,53.70
2019-03-17T10:32:27.778Z,54.20
2019-03-17T10:34:54.482Z,54.30
2019-03-17T10:37:21.148Z,54.70
2019-03-17T10:39:47.747Z,54.80
2019-03-17T10:42:14.371Z,55.40
2019-03-17T10:44:40.975Z,55.00
2019-03-17T10:47:07.576Z,54.30
2019-03-17T10:49:34.215Z,54.80
2019-03-17T10:52:00.889Z,53.70
2019-03-17T10:54:27.591Z,53.20
2019-03-17T10:56:54.215Z,52.30
2019-03-17T10:59:20.875Z,53.80
2019-03-17T11:01:47.471Z,53.90
2019-03-17T11:04:14.266Z,54.10
2019-03-17T11:06:40.918Z,52.60
2019-03-17T11:09:07.744Z,53.10
2019-03-17T11:11:34.517Z,53.20
2019-03-17T11:14:01.196Z,53.80
2019-03-17T11:16:27.851Z,54.20
2019-03-17T11:18:54.821Z,54.50
2019-03-17T11:21:21.718Z,54.70
2019-03-17T11:23:48.359Z,55.60
2019-03-17T11:26:15.048Z,56.10
2019-03-17T11:28:41.909Z,56.20
2019-03-17T11:31:11.657Z,55.90
2019-03-17T11:33:38.791Z,56.10
2019-03-17T11:36:05.573Z,55.70
2019-03-17T11:38:32.365Z,56.20
2019-03-17T11:40:59.102Z,56.50
2019-03-17T11:43:25.969Z,56.50
2019-03-17T11:45:52.754Z,56.10
2019-03-17T11:48:19.463Z,56.20
2019-03-17T11:50:46.227Z,56.50
2019-03-17T11:53:13.006Z,57.00
2019-03-17T11:55:39.730Z,57.20
2019-03-17T11:58:06.819Z,58.00
2019-03-17T12:00:33.493Z,58.30
2019-03-17T12:03:00.975Z,58.90
2019-03-17T12:05:27.719Z,59.30
2019-03-17T12:07:54.295Z,58.90
2019-03-17T12:10:20.972Z,58.80
2019-03-17T12:12:47.628Z,59.40
2019-03-17T12:15:14.576Z,59.50
2019-03-17T12:17:41.210Z,58.60
2019-03-17T12:20:08.380Z,58.30
2019-03-17T12:22:34.971Z,58.70
2019-03-17T12:25:01.636Z,58.50
2019-03-17T12:27:28.285Z,58.90
2019-03-17T12:29:55.013Z,59.70
2019-03-17T12:32:21.617Z,59.10
2019-03-17T12:34:48.253Z,59.60
2019-03-17T12:37:15.000Z,59.90
2019-03-17T12:39:41.616Z,59.90
2019-03-17T12:42:08.705Z,60.50
2019-03-17T12:44:35.409Z,61.70
2019-03-17T12:47:02.050Z,61.40
2019-03-17T12:49:28.636Z,61.40
2019-03-17T12:51:55.265Z,61.90
2019-03-17T12:54:21.881Z,63.20
2019-03-17T12:56:48.541Z,67.60
2019-03-17T12:59:15.197Z,64.90
2019-03-17T13:01:41.900Z,67.10
2019-03-17T13:04:08.570Z,68.10
2019-03-17T13:06:35.199Z,67.40
2019-03-17T13:09:03.491Z,68.10
2019-03-17T13:11:30.191Z,78.10
2019-03-17T13:13:56.873Z,93.10
2019-03-17T13:16:23.468Z,93.00
2019-03-17T13:18:50.109Z,98.20
2019-03-17T13:21:16.780Z,99.90
2019-03-17T13:23:43.389Z,99.90
2019-03-17T13:26:10.440Z,99.90
2019-03-17T13:28:37.856Z,99.90
2019-03-17T13:31:04.536Z,99.90
2019-03-17T13:33:31.223Z,99.90
2019-03-17T13:35:57.989Z,99.90
2019-03-17T13:38:24.653Z,99.90
2019-03-17T13:40:51.345Z,99.90
2019-03-17T13:43:17.930Z,99.90
2019-03-17T13:45:44.825Z,99.90
2019-03-17T13:48:11.466Z,99.90
2019-03-17T13:50:38.208Z,99.90
2019-03-17T13:53:04.991Z,99.90
2019-03-17T13:55:32.219Z,99.90
2019-03-17T13:57:59.455Z,99.90
2019-03-17T14:00:26.188Z,99.90
2019-03-17T14:02:53.040Z,99.90
2019-03-17T14:05:20.064Z,99.90
2019-03-17T14:07:46.793Z,99.90
2019-03-17T14:10:14.790Z,99.90
2019-03-17T14:12:41.662Z,99.90
2019-03-17T14:15:09.611Z,99.90
2019-03-17T14:17:36.321Z,99.90
2019-03-17T14:20:06.078Z,99.90
2019-03-17T14:22:32.905Z,99.90
2019-03-17T14:24:59.800Z,99.90
2019-03-17T14:27:26.586Z,99.90
2019-03-17T14:30:13.431Z,99.90
2019-03-17T14:32:40.072Z,99.90
2019-03-17T14:35:06.904Z,99.90
2019-03-17T14:37:33.608Z,99.90
2019-03-17T14:40:00.390Z,99.90
2019-03-17T14:42:27.053Z,99.90
2019-03-17T14:44:53.841Z,99.90
2019-03-17T14:47:20.516Z,99.90
2019-03-17T14:49:47.112Z,99.90
2019-03-17T14:52:13.796Z,99.90
2019-03-17T14:54:40.527Z,99.90
2019-03-17T14:57:07.318Z,99.90
2019-03-17T14:59:34.054Z,99.90
2019-03-17T15:02:00.679Z,99.90
2019-03-17T15:04:27.368Z,99.90
2019-03-17T15:06:54.077Z,99.90
2019-03-17T15:09:20.684Z,99.90
2019-03-17T15:11:47.366Z,99.90
2019-03-17T15:14:14.103Z,99.90
2019-03-17T15:16:40.702Z,99.90
2019-03-17T15:19:07.475Z,99.90
2019-03-17T15:21:34.191Z,99.90
2019-03-17T15:24:01.129Z,99.90
2019-03-17T15:26:27.712Z,99.90
2019-03-17T15:28:54.698Z,99.90
2019-03-17T15:31:21.284Z,99.90
2019-03-17T15:33:48.063Z,99.90
2019-03-17T15:36:14.764Z,99.90
2019-03-17T15:38:41.571Z,99.90
2019-03-17T15:41:18.014Z,99.90
2019-03-17T15:43:36.816Z,99.90
2019-03-17T15:46:03.435Z,99.90
2019-03-17T15:48:30.095Z,99.90
2019-03-17T15:50:56.878Z,99.90
2019-03-17T15:53:23.533Z,99.90
2019-03-17T15:55:50.341Z,99.90
2019-03-17T15:58:17.000Z,99.90
2019-03-17T16:00:43.740Z,99.90
2019-03-17T16:03:10.713Z,99.90
2019-03-17T16:05:37.537Z,99.90
2019-03-17T16:08:04.200Z,99.90
2019-03-17T16:10:30.928Z,99.90
2019-03-17T16:12:57.692Z,99.90
2019-03-17T16:15:24.444Z,99.90
2019-03-17T16:17:51.074Z,99.90
2019-03-17T16:20:18.420Z,99.90
2019-03-17T16:22:45.312Z,99.90
2019-03-17T16:25:12.808Z,99.90
2019-03-17T16:27:39.490Z,99.90
2019-03-17T16:30:09.603Z,99.90
2019-03-17T16:32:36.251Z,99.90
2019-03-17T16:35:03.656Z,99.90
2019-03-17T16:37:30.344Z,99.90
2019-03-17T16:39:57.047Z,99.40
2019-03-17T16:42:23.819Z,99.90
2019-03-17T16:44:50.557Z,99.90
2019-03-17T16:47:17.198Z,99.90
2019-03-17T16:49:44.124Z,99.90
2019-03-17T16:52:11.031Z,99.90
2019-03-17T16:54:37.626Z,99.40
2019-03-17T16:57:04.378Z,99.30
2019-03-17T16:59:30.998Z,99.90
2019-03-17T17:01:57.688Z,99.90
2019-03-17T17:04:24.354Z,99.90
2019-03-17T17:06:51.680Z,99.90
2019-03-17T17:09:18.360Z,99.90
2019-03-17T17:11:55.897Z,99.90
2019-03-17T17:14:14.583Z,99.90
2019-03-17T17:16:41.191Z,99.90
2019-03-17T17:19:07.853Z,99.90
2019-03-17T17:21:34.495Z,99.90
2019-03-17T17:24:01.132Z,99.90
2019-03-17T17:26:37.393Z,99.90
2019-03-17T17:28:57.236Z,99.90
2019-03-17T17:31:23.827Z,99.90
2019-03-17T17:33:50.852Z,99.90
2019-03-17T17:36:17.490Z,99.90
2019-03-17T17:38:44.096Z,99.90
2019-03-17T17:41:12.458Z,99.90
2019-03-17T17:43:39.573Z,99.90
2019-03-17T17:46:06.178Z,99.90
2019-03-17T17:48:32.912Z,99.90
2019-03-17T17:50:59.600Z,99.30
2019-03-17T17:53:26.240Z,98.30
2019-03-17T17:55:52.878Z,99.40
2019-03-17T17:58:19.500Z,99.60
2019-03-17T18:00:46.755Z,98.90
2019-03-17T18:03:13.715Z,97.50
2019-03-17T18:05:40.373Z,94.00
2019-03-17T18:08:07.256Z,92.60
2019-03-17T18:10:34.181Z,90.50
2019-03-17T18:13:00.879Z,88.20
2019-03-17T18:15:27.596Z,86.50
2019-03-17T18:17:54.415Z,88.70
2019-03-17T18:20:21.389Z,84.00
2019-03-17T18:22:48.249Z,83.00
2019-03-17T18:25:14.908Z,84.90
2019-03-17T18:27:41.563Z,83.60
2019-03-17T18:30:10.435Z,84.50
2019-03-17T18:32:38.472Z,84.60
2019-03-17T18:35:05.391Z,84.00
2019-03-17T18:37:32.320Z,84.60
2019-03-17T18:39:59.175Z,83.20
2019-03-17T18:42:32.988Z,82.70
2019-03-17T18:44:54.946Z,82.50
2019-03-17T18:47:21.874Z,83.20
2019-03-17T18:49:48.580Z,84.00
2019-03-17T18:52:15.407Z,83.90
2019-03-17T18:54:42.060Z,82.50
2019-03-17T18:57:08.669Z,83.30
2019-03-17T18:59:35.270Z,83.70
2019-03-17T19:02:02.189Z,83.70
2019-03-17T19:04:28.855Z,82.00
2019-03-17T19:06:55.458Z,82.30
2019-03-17T19:09:22.083Z,82.80
2019-03-17T19:11:48.720Z,83.20
2019-03-17T19:14:15.355Z,81.50
2019-03-17T19:16:42.117Z,81.40
2019-03-17T19:19:08.725Z,81.10
2019-03-17T19:21:35.409Z,81.20
2019-03-17T19:24:02.641Z,82.10
2019-03-17T19:26:29.258Z,83.20
2019-03-17T19:28:55.909Z,81.50
2019-03-17T19:31:22.944Z,81.60
2019-03-17T19:33:49.577Z,83.30
2019-03-17T19:36:16.216Z,83.70
2019-03-17T19:38:42.811Z,83.50
2019-03-17T19:41:09.424Z,83.30
2019-03-17T19:43:36.223Z,85.20
2019-03-17T19:46:03.050Z,86.30
2019-03-17T19:48:29.811Z,87.10
2019-03-17T19:50:56.473Z,87.50
2019-03-17T19:53:24.324Z,87.30
2019-03-17T19:55:50.965Z,87.60
2019-03-17T19:58:17.619Z,87.90
2019-03-17T20:00:44.244Z,88.60
2019-03-17T20:03:10.971Z,89.30
2019-03-17T20:05:37.642Z,89.00
2019-03-17T20:08:04.254Z,90.60
2019-03-17T20:10:31.183Z,89.20
2019-03-17T20:13:10.368Z,88.80
2019-03-17T20:15:26.339Z,90.30
2019-03-17T20:17:54.025Z,91.30
2019-03-17T20:20:20.828Z,90.10
2019-03-17T20:22:47.675Z,90.00
2019-03-17T20:25:14.436Z,90.20
2019-03-17T20:27:41.068Z,91.30
2019-03-17T20:30:08.662Z,92.00
2019-03-17T20:32:35.401Z,92.00
2019-03-17T20:35:02.336Z,92.40
2019-03-17T20:37:29.072Z,92.50
2019-03-17T20:39:55.954Z,91.70
2019-03-17T20:42:22.657Z,92.20
2019-03-17T20:44:49.271Z,93.60
2019-03-17T20:47:15.957Z,93.60
2019-03-17T20:49:42.667Z,94.20
2019-03-17T20:52:09.589Z,95.40
2019-03-17T20:54:37.280Z,94.10
2019-03-17T20:57:03.981Z,95.00
2019-03-17T20:59:30.594Z,95.10
2019-03-17T21:01:57.193Z,95.10
2019-03-17T21:04:25.209Z,95.20
2019-03-17T21:06:51.834Z,95.70
2019-03-17T21:09:18.844Z,96.40
2019-03-17T21:11:45.536Z,96.80
2019-03-17T21:14:12.844Z,97.40
2019-03-17T21:16:39.505Z,98.10
2019-03-17T21:19:06.172Z,99.40
2019-03-17T21:21:32.987Z,99.90
2019-03-17T21:23:59.613Z,99.10
2019-03-17T21:26:26.246Z,99.00
2019-03-17T21:28:53.169Z,99.90
2019-03-17T21:31:19.830Z,99.90
2019-03-17T21:33:46.570Z,99.90
2019-03-17T21:36:13.415Z,99.90
2019-03-17T21:38:40.124Z,99.90
2019-03-17T21:41:08.640Z,99.90
2019-03-17T21:43:35.293Z,99.90
2019-03-17T21:46:01.905Z,99.90
2019-03-17T21:48:28.550Z,99.90
2019-03-17T21:50:55.253Z,99.90
2019-03-17T21:53:21.875Z,99.90
2019-03-17T21:55:48.584Z,99.90
2019-03-17T21:58:15.228Z,99.90
2019-03-17T22:00:41.895Z,99.90
2019-03-17T22:03:16.111Z,99.90
2019-03-17T22:05:44.216Z,99.90
2019-03-17T22:08:10.903Z,99.90
2019-03-17T22:10:37.618Z,99.90
2019-03-17T22:13:04.348Z,99.90
2019-03-17T22:15:31.125Z,99.90
2019-03-17T22:17:57.815Z,99.90
2019-03-17T22:20:24.488Z,99.90
2019-03-17T22:22:51.187Z,99.90
2019-03-17T22:25:17.874Z,99.90
2019-03-17T22:27:44.595Z,99.90
2019-03-17T22:30:11.696Z,99.90
2019-03-17T22:32:38.505Z,99.90
2019-03-17T22:35:06.052Z,99.90
2019-03-17T22:37:32.732Z,99.90
2019-03-17T22:39:59.361Z,99.60
2019-03-17T22:42:26.080Z,98.30
2019-03-17T22:44:52.928Z,98.00
2019-03-17T22:47:19.526Z,98.30
2019-03-17T22:49:46.467Z,98.40
2019-03-17T22:52:13.163Z,98.70
2019-03-17T22:54:39.897Z,98.50
2019-03-17T22:57:06.729Z,99.20
2019-03-17T22:59:33.477Z,97.90
2019-03-17T23:02:00.347Z,98.90
2019-03-17T23:04:27.152Z,99.20
2019-03-17T23:06:54.884Z,99.60
2019-03-17T23:09:21.531Z,99.20
2019-03-17T23:11:48.280Z,98.90
2019-03-17T23:14:15.004Z,99.20
2019-03-17T23:16:41.687Z,99.50
2019-03-17T23:19:08.325Z,99.90
2019-03-17T23:21:35.089Z,99.90
2019-03-17T23:24:01.814Z,99.90
2019-03-17T23:26:28.688Z,99.90
2019-03-17T23:28:55.315Z,99.90
2019-03-17T23:31:21.956Z,99.90
2019-03-17T23:33:49.037Z,99.90
2019-03-17T23:36:15.846Z,99.90
2019-03-17T23:38:42.780Z,99.90
2019-03-17T23:41:09.480Z,99.90
2019-03-17T23:43:36.157Z,99.90
2019-03-17T23:46:02.819Z,99.90
2019-03-17T23:48:29.676Z,99.90
2019-03-17T23:50:56.305Z,99.90
2019-03-17T23:53:23.688Z,99.90
2019-03-17T23:55:50.418Z,99.90
2019-03-17T23:58:17.140Z,99.90
